createdAt,value
2022-09-01T00:01:39.313Z,1.55
2022-09-01T00:04:08.883Z,2.20
2022-09-01T00:06:36.700Z,1.90
2022-09-01T00:09:07.745Z,2.10
2022-09-01T00:11:35.161Z,2.53
2022-09-01T00:14:02.815Z,2.20
2022-09-01T00:16:30.983Z,2.35
2022-09-01T00:18:58.077Z,2.40
2022-09-01T00:21:30.529Z,2.53
2022-09-01T00:23:57.603Z,2.05
2022-09-01T00:26:24.554Z,2.53
2022-09-01T00:28:51.704Z,2.75
2022-09-01T00:31:20.131Z,3.00
2022-09-01T00:33:48.577Z,2.63
2022-09-01T00:36:16.225Z,2.20
2022-09-01T00:38:43.631Z,2.30
2022-09-01T00:41:11.030Z,2.47
2022-09-01T00:43:45.011Z,2.30
2022-09-01T00:46:14.902Z,2.05
2022-09-01T00:48:45.478Z,2.30
2022-09-01T00:51:13.292Z,2.08
2022-09-01T00:53:42.412Z,2.40
2022-09-01T00:56:09.803Z,2.13
2022-09-01T00:58:38.564Z,2.20
2022-09-01T01:01:09.840Z,1.73
2022-09-01T01:03:37.323Z,2.05
2022-09-01T01:06:08.357Z,2.53
2022-09-01T01:08:38.361Z,2.25
2022-09-01T01:11:09.365Z,2.30
2022-09-01T01:13:55.959Z,2.53
2022-09-01T01:16:24.636Z,3.33
2022-09-01T01:18:52.588Z,2.88
2022-09-01T01:21:59.820Z,2.60
2022-09-01T01:24:28.636Z,2.60
2022-09-01T01:27:00.196Z,3.08
2022-09-01T01:29:32.556Z,3.05
2022-09-01T01:32:00.718Z,3.40
2022-09-01T01:34:27.622Z,3.13
2022-09-01T01:36:55.302Z,3.28
2022-09-01T01:39:25.553Z,3.45
2022-09-01T01:41:55.815Z,4.20
2022-09-01T01:44:27.941Z,3.70
2022-09-01T01:46:55.729Z,4.13
2022-09-01T01:49:27.618Z,3.60
2022-09-01T01:51:58.167Z,7.35
2022-09-01T01:54:31.289Z,5.25
2022-09-01T01:57:02.186Z,4.20
2022-09-01T01:59:29.673Z,3.88
2022-09-01T02:01:56.798Z,3.63
2022-09-01T02:04:23.748Z,3.53
2022-09-01T02:06:51.460Z,3.33
2022-09-01T02:09:20.827Z,3.95
2022-09-01T02:11:48.206Z,3.53
2022-09-01T02:14:20.591Z,3.92
2022-09-01T02:16:47.543Z,4.15
2022-09-01T02:19:14.763Z,4.18
2022-09-01T02:21:44.711Z,3.95
2022-09-01T02:24:12.018Z,4.10
2022-09-01T02:26:42.985Z,3.50
2022-09-01T02:29:19.164Z,3.75
2022-09-01T02:31:47.698Z,3.53
2022-09-01T02:34:15.010Z,3.10
2022-09-01T02:36:47.658Z,3.42
2022-09-01T02:39:20.360Z,3.80
2022-09-01T02:41:47.575Z,3.63
2022-09-01T02:44:14.899Z,3.35
2022-09-01T02:46:44.103Z,3.80
2022-09-01T02:49:15.445Z,3.75
2022-09-01T02:51:44.377Z,3.45
2022-09-01T02:54:15.555Z,3.47
2022-09-01T02:56:44.489Z,3.65
2022-09-01T02:59:13.103Z,3.28
2022-09-01T03:01:40.439Z,3.60
2022-09-01T03:04:09.781Z,3.03
2022-09-01T03:06:37.972Z,3.40
2022-09-01T03:09:12.086Z,3.72
2022-09-01T03:11:41.149Z,3.55
2022-09-01T03:14:08.850Z,3.90
2022-09-01T03:16:37.398Z,3.53
2022-09-01T03:19:09.030Z,3.70
2022-09-01T03:21:37.332Z,3.67
2022-09-01T03:24:04.269Z,3.78
2022-09-01T03:26:31.812Z,4.53
2022-09-01T03:28:59.441Z,3.72
2022-09-01T03:31:30.792Z,3.13
2022-09-01T03:33:59.691Z,3.50
2022-09-01T03:36:28.520Z,3.85
2022-09-01T03:38:56.016Z,3.63
2022-09-01T03:41:26.254Z,4.07
2022-09-01T03:43:56.792Z,3.22
2022-09-01T03:46:24.429Z,3.58
2022-09-01T03:48:58.746Z,3.40
2022-09-01T03:51:26.974Z,3.10
2022-09-01T03:53:55.267Z,3.55
2022-09-01T03:56:27.455Z,3.33
2022-09-01T03:58:56.293Z,4.00
2022-09-01T04:01:24.427Z,4.47
2022-09-01T04:03:53.034Z,3.53
2022-09-01T04:06:22.035Z,3.40
2022-09-01T04:08:49.027Z,3.47
2022-09-01T04:11:23.600Z,4.07
2022-09-01T04:13:51.176Z,4.22
2022-09-01T04:16:44.223Z,4.13
2022-09-01T04:19:25.660Z,4.13
2022-09-01T04:21:55.907Z,4.10
2022-09-01T04:24:24.457Z,4.45
2022-09-01T04:26:52.849Z,4.13
2022-09-01T04:29:27.322Z,4.25
2022-09-01T04:32:03.446Z,4.38
2022-09-01T04:34:37.636Z,4.10
2022-09-01T04:37:13.243Z,4.07
2022-09-01T04:39:43.120Z,4.07
2022-09-01T04:42:10.507Z,4.82
2022-09-01T04:44:37.519Z,4.60
2022-09-01T04:47:11.022Z,4.10
2022-09-01T04:49:38.262Z,4.60
2022-09-01T04:52:05.249Z,4.65
2022-09-01T04:54:35.067Z,4.40
2022-09-01T04:57:01.932Z,5.07
2022-09-01T04:59:30.692Z,4.78
2022-09-01T05:02:00.365Z,4.30
2022-09-01T05:04:33.928Z,4.05
2022-09-01T05:07:02.323Z,3.65
2022-09-01T05:09:32.042Z,3.97
2022-09-01T05:12:08.939Z,4.43
2022-09-01T05:14:35.903Z,4.00
2022-09-01T05:17:04.412Z,4.18
2022-09-01T05:19:31.303Z,3.80
2022-09-01T05:21:58.360Z,4.05
2022-09-01T05:24:30.440Z,4.00
2022-09-01T05:26:57.981Z,3.37
2022-09-01T05:29:27.780Z,4.22
2022-09-01T05:31:55.625Z,3.90
2022-09-01T05:34:27.184Z,3.80
2022-09-01T05:36:57.987Z,3.88
2022-09-01T05:39:26.061Z,3.65
2022-09-01T05:41:53.937Z,4.15
2022-09-01T05:44:23.018Z,3.80
2022-09-01T05:46:51.102Z,3.90
2022-09-01T05:49:18.650Z,3.53
2022-09-01T05:51:51.819Z,3.88
2022-09-01T05:54:25.564Z,3.70
2022-09-01T05:56:53.718Z,3.13
2022-09-01T05:59:25.311Z,3.65
2022-09-01T06:01:53.963Z,3.30
2022-09-01T06:04:22.365Z,3.70
2022-09-01T06:07:06.859Z,2.92
2022-09-01T06:09:41.816Z,3.20
2022-09-01T06:12:13.137Z,2.88
2022-09-01T06:14:39.988Z,3.47
2022-09-01T06:17:10.205Z,3.40
2022-09-01T06:19:38.087Z,3.58
2022-09-01T06:22:05.939Z,3.10
2022-09-01T06:24:33.033Z,3.10
2022-09-01T06:27:00.032Z,3.25
2022-09-01T06:29:26.883Z,3.22
2022-09-01T06:31:53.751Z,3.28
2022-09-01T06:34:21.165Z,2.45
2022-09-01T06:36:51.294Z,2.78
2022-09-01T06:39:20.975Z,2.95
2022-09-01T06:41:50.819Z,2.45
2022-09-01T06:44:22.672Z,3.00
2022-09-01T06:46:53.189Z,3.47
2022-09-01T06:49:21.549Z,2.80
2022-09-01T06:51:49.856Z,3.10
2022-09-01T06:54:19.048Z,3.25
2022-09-01T06:59:35.305Z,2.53
2022-09-01T07:02:04.885Z,2.97
2022-09-01T07:04:51.948Z,3.08
2022-09-01T07:13:11.439Z,2.20
2022-09-01T07:18:30.898Z,2.55
2022-09-01T07:21:35.768Z,1.85
2022-09-01T07:23:46.660Z,2.08
2022-09-01T07:26:27.081Z,2.10
2022-09-01T07:29:01.676Z,1.88
2022-09-01T07:34:42.193Z,1.73
2022-09-01T07:38:47.395Z,1.77
2022-09-01T07:42:31.249Z,2.90
2022-09-01T07:45:47.235Z,2.03
2022-09-01T07:51:35.472Z,1.83
2022-09-01T07:53:54.924Z,2.53
2022-09-01T07:56:23.323Z,2.10
2022-09-01T07:58:51.724Z,2.95
2022-09-01T08:01:24.430Z,2.08
2022-09-01T08:03:54.753Z,1.83
2022-09-01T08:06:24.836Z,1.83
2022-09-01T08:08:56.933Z,1.60
2022-09-01T08:11:58.262Z,2.15
2022-09-01T08:14:18.221Z,1.77
2022-09-01T08:16:53.244Z,1.30
2022-09-01T08:19:20.590Z,1.58
2022-09-01T08:21:47.416Z,1.73
2022-09-01T08:24:14.423Z,1.63
2022-09-01T08:26:41.316Z,1.65
2022-09-01T08:29:08.407Z,1.40
2022-09-01T08:31:36.214Z,1.40
2022-09-01T08:34:05.542Z,1.27
2022-09-01T08:36:32.615Z,1.50
2022-09-01T08:38:59.755Z,1.30
2022-09-01T08:41:52.356Z,1.40
2022-09-01T08:44:22.495Z,2.03
2022-09-01T08:46:56.523Z,1.20
2022-09-01T08:49:26.897Z,1.33
2022-09-01T08:51:59.019Z,1.20
2022-09-01T08:54:36.369Z,1.30
2022-09-01T08:57:10.155Z,1.08
2022-09-01T08:59:37.192Z,1.73
2022-09-01T09:02:16.564Z,1.30
2022-09-01T09:05:18.051Z,1.33
2022-09-01T09:08:07.979Z,1.08
2022-09-01T09:10:53.150Z,1.40
2022-09-01T09:13:32.895Z,1.58
2022-09-01T09:16:10.882Z,1.20
2022-09-01T09:18:57.004Z,1.17
2022-09-01T09:21:33.999Z,1.20
2022-09-01T09:24:25.755Z,1.02
2022-09-01T09:26:56.328Z,1.10
2022-09-01T09:29:24.403Z,1.50
2022-09-01T09:32:04.567Z,1.10
2022-09-01T09:34:35.129Z,1.17
2022-09-01T09:37:16.945Z,1.45
2022-09-01T09:39:44.220Z,1.42
2022-09-01T09:42:14.347Z,1.20
2022-09-01T09:44:45.704Z,1.17
2022-09-01T09:47:43.745Z,1.05
2022-09-01T09:50:30.258Z,1.48
2022-09-01T09:53:12.584Z,1.45
2022-09-01T09:55:55.774Z,1.03
2022-09-01T09:58:26.591Z,1.05
2022-09-01T10:01:15.358Z,1.15
2022-09-01T10:03:44.184Z,1.20
2022-09-01T10:06:14.827Z,1.08
2022-09-01T10:08:45.583Z,1.00
2022-09-01T10:11:35.489Z,1.10
2022-09-01T10:14:06.408Z,1.35
2022-09-01T10:16:35.373Z,1.05
2022-09-01T10:19:02.804Z,1.40
2022-09-01T10:21:33.080Z,1.35
2022-09-01T10:24:17.646Z,1.17
2022-09-01T10:26:52.137Z,1.30
2022-09-01T10:29:24.958Z,0.98
2022-09-01T10:32:08.508Z,1.17
2022-09-01T10:34:42.124Z,1.10
2022-09-01T10:37:10.560Z,1.13
2022-09-01T10:40:13.639Z,1.10
2022-09-01T10:42:45.274Z,1.40
2022-09-01T10:45:38.781Z,0.98
2022-09-01T10:51:19.324Z,1.00
2022-09-01T10:53:50.024Z,1.33
2022-09-01T10:56:42.878Z,0.80
2022-09-01T10:59:32.688Z,1.10
2022-09-01T11:02:28.157Z,1.05
2022-09-01T11:04:59.141Z,1.15
2022-09-01T11:07:57.685Z,1.10
2022-09-01T11:10:51.919Z,0.90
2022-09-01T11:13:50.269Z,1.00
2022-09-01T11:16:47.984Z,1.00
2022-09-01T11:19:46.787Z,1.30
2022-09-01T11:22:13.576Z,1.10
2022-09-01T11:24:41.341Z,1.23
2022-09-01T11:27:13.535Z,0.75
2022-09-01T11:30:08.930Z,1.15
2022-09-01T11:32:38.264Z,1.33
2022-09-01T11:35:20.328Z,1.15
2022-09-01T11:37:51.502Z,1.20
2022-09-01T11:40:29.760Z,1.27
2022-09-01T11:43:05.597Z,0.95
2022-09-01T11:45:40.604Z,1.23
2022-09-01T11:50:40.538Z,0.90
2022-09-01T11:53:22.468Z,0.95
2022-09-01T11:55:51.958Z,1.15
2022-09-01T11:58:28.058Z,1.10
2022-09-01T12:01:15.374Z,1.05
2022-09-01T12:03:43.138Z,0.85
2022-09-01T12:06:12.217Z,1.42
2022-09-01T12:08:43.304Z,1.10
2022-09-01T12:11:22.075Z,1.02
2022-09-01T12:13:58.685Z,1.13
2022-09-01T12:16:26.282Z,0.73
2022-09-01T12:18:55.288Z,0.90
2022-09-01T12:21:27.087Z,1.00
2022-09-01T12:24:22.718Z,0.98
2022-09-01T12:26:52.322Z,0.80
2022-09-01T12:29:19.591Z,0.90
2022-09-01T12:31:48.631Z,1.20
2022-09-01T12:34:26.219Z,0.80
2022-09-01T12:37:11.683Z,0.90
2022-09-01T12:39:54.507Z,1.10
2022-09-01T12:42:21.417Z,1.48
2022-09-01T12:45:00.001Z,1.23
2022-09-01T12:47:40.385Z,1.10
2022-09-01T12:50:12.946Z,0.82
2022-09-01T12:52:52.402Z,1.17
2022-09-01T12:58:09.941Z,0.90
2022-09-01T13:00:58.672Z,0.90
2022-09-01T13:03:27.798Z,0.98
2022-09-01T13:05:56.277Z,0.93
2022-09-01T13:08:27.111Z,1.10
2022-09-01T13:11:02.268Z,1.02
2022-09-01T13:13:30.045Z,1.10
2022-09-01T13:16:12.838Z,1.50
2022-09-01T13:21:30.883Z,1.10
2022-09-01T13:23:58.991Z,1.02
2022-09-01T13:26:26.420Z,0.90
2022-09-01T13:28:53.956Z,1.10
2022-09-01T13:31:29.082Z,0.95
2022-09-01T13:34:21.821Z,1.23
2022-09-01T13:36:46.191Z,1.25
2022-09-01T13:39:15.831Z,0.90
2022-09-01T13:41:43.283Z,1.85
2022-09-01T13:44:10.527Z,1.05
2022-09-01T13:50:06.600Z,0.80
2022-09-01T13:52:17.041Z,1.30
2022-09-01T13:54:44.637Z,1.02
2022-09-01T13:57:12.027Z,1.30
2022-09-01T13:59:39.228Z,0.80
2022-09-01T14:02:06.477Z,1.23
2022-09-01T14:04:33.697Z,0.82
2022-09-01T14:07:00.654Z,1.48
2022-09-01T14:09:28.231Z,0.80
2022-09-01T14:11:55.650Z,1.00
2022-09-01T14:14:22.906Z,0.93
2022-09-01T14:16:50.203Z,1.10
2022-09-01T14:19:17.509Z,1.48
2022-09-01T14:21:45.763Z,1.15
2022-09-01T14:24:13.627Z,1.20
2022-09-01T14:26:43.327Z,1.30
2022-09-01T14:29:10.494Z,1.05
2022-09-01T14:31:37.979Z,1.02
2022-09-01T14:34:04.966Z,1.30
2022-09-01T14:36:31.938Z,1.30
2022-09-01T14:38:59.529Z,1.08
2022-09-01T14:41:27.198Z,1.10
2022-09-01T14:43:57.597Z,0.90
2022-09-01T14:46:26.996Z,1.35
2022-09-01T14:48:53.921Z,1.10
2022-09-01T14:54:18.772Z,1.10
2022-09-01T14:57:28.551Z,1.30
2022-09-01T14:59:33.364Z,1.25
2022-09-01T15:02:00.285Z,1.55
2022-09-01T15:04:28.034Z,1.10
2022-09-01T15:06:55.647Z,1.25
2022-09-01T15:09:22.758Z,0.93
2022-09-01T15:11:49.687Z,1.23
2022-09-01T15:14:16.906Z,0.93
2022-09-01T15:16:43.825Z,1.27
2022-09-01T15:19:12.676Z,1.10
2022-09-01T15:21:41.131Z,1.50
2022-09-01T15:24:09.172Z,1.13
2022-09-01T15:26:37.277Z,1.02
2022-09-01T15:29:05.261Z,1.23
2022-09-01T15:31:33.829Z,1.27
2022-09-01T15:34:02.737Z,1.20
2022-09-01T15:36:30.893Z,1.20
2022-09-01T15:38:58.544Z,1.17
2022-09-01T15:41:28.507Z,1.00
2022-09-01T15:43:56.422Z,1.50
2022-09-01T15:46:31.046Z,1.13
2022-09-01T15:48:59.839Z,1.30
2022-09-01T15:51:34.826Z,1.30
2022-09-01T15:54:10.362Z,0.90
2022-09-01T15:56:37.305Z,1.67
2022-09-01T15:59:05.551Z,1.15
2022-09-01T16:01:36.271Z,1.05
2022-09-01T16:04:04.984Z,1.10
2022-09-01T16:06:32.920Z,1.20
2022-09-01T16:08:59.910Z,1.40
2022-09-01T16:11:27.207Z,1.30
2022-09-01T16:13:54.720Z,1.25
2022-09-01T16:16:48.490Z,1.55
2022-09-01T16:19:32.057Z,2.08
2022-09-01T16:21:58.928Z,1.35
2022-09-01T16:24:26.289Z,1.63
2022-09-01T16:26:53.222Z,1.30
2022-09-01T16:29:35.083Z,1.10
2022-09-01T16:32:02.098Z,1.27
2022-09-01T16:34:32.076Z,1.15
2022-09-01T16:37:26.375Z,1.00
2022-09-01T16:40:03.279Z,1.15
2022-09-01T16:42:41.657Z,1.50
2022-09-01T16:45:28.860Z,1.33
2022-09-01T16:48:13.690Z,1.15
2022-09-01T16:50:49.639Z,1.42
2022-09-01T16:53:28.371Z,1.30
2022-09-01T16:56:08.054Z,1.30
2022-09-01T16:58:55.702Z,1.60
2022-09-01T17:01:42.910Z,1.17
2022-09-01T17:04:15.699Z,1.00
2022-09-01T17:07:00.203Z,1.33
2022-09-01T17:09:35.178Z,1.10
2022-09-01T17:12:19.988Z,2.35
2022-09-01T17:14:55.171Z,1.58
2022-09-01T17:17:59.329Z,1.98
2022-09-01T17:20:31.538Z,1.60
2022-09-01T17:23:00.351Z,1.40
2022-09-01T17:25:41.273Z,1.30
2022-09-01T17:28:15.151Z,1.05
2022-09-01T17:31:14.368Z,1.27
2022-09-01T17:34:01.916Z,1.58
2022-09-01T17:36:41.303Z,1.15
2022-09-01T17:39:27.513Z,1.10
2022-09-01T17:41:59.180Z,1.25
2022-09-01T17:44:35.718Z,1.20
2022-09-01T17:47:31.547Z,1.35
2022-09-01T17:50:01.042Z,1.00
2022-09-01T17:52:52.631Z,1.45
2022-09-01T17:55:35.361Z,1.38
2022-09-01T17:58:11.234Z,1.20
2022-09-01T18:00:46.229Z,1.10
2022-09-01T18:04:00.756Z,1.65
2022-09-01T18:06:33.153Z,1.25
2022-09-01T18:09:00.584Z,1.80
2022-09-01T18:11:36.091Z,1.33
2022-09-01T18:14:08.255Z,0.90
2022-09-01T18:16:49.538Z,1.30
2022-09-01T18:19:23.284Z,1.10
2022-09-01T18:22:01.999Z,1.30
2022-09-01T18:24:34.771Z,1.48
2022-09-01T18:27:01.964Z,1.25
2022-09-01T18:29:29.719Z,1.08
2022-09-01T18:32:21.176Z,1.20
2022-09-01T18:35:01.433Z,1.58
2022-09-01T18:37:36.277Z,1.38
2022-09-01T18:40:19.412Z,0.80
2022-09-01T18:45:42.598Z,1.40
2022-09-01T18:48:18.149Z,1.05
2022-09-01T18:51:00.138Z,1.23
2022-09-01T18:53:39.332Z,1.33
2022-09-01T18:56:37.560Z,1.27
2022-09-01T19:03:11.871Z,1.10
2022-09-01T19:05:53.839Z,1.30
2022-09-01T19:08:42.231Z,1.20
2022-09-01T19:11:23.410Z,1.10
2022-09-01T19:17:02.348Z,1.42
2022-09-01T19:19:32.274Z,1.20
2022-09-01T19:21:59.334Z,1.13
2022-09-01T19:24:49.355Z,1.83
2022-09-01T19:27:22.295Z,1.77
2022-09-01T19:32:42.136Z,1.05
2022-09-01T19:35:16.055Z,0.90
2022-09-01T19:37:51.298Z,1.00
2022-09-01T19:43:28.748Z,1.20
2022-09-01T19:46:03.540Z,0.90
2022-09-01T19:48:52.225Z,0.77
2022-09-01T19:51:29.520Z,1.00
2022-09-01T19:54:02.218Z,1.13
2022-09-01T19:56:36.707Z,1.02
2022-09-01T19:59:47.749Z,0.80
2022-09-01T20:06:19.472Z,1.02
2022-09-01T20:09:08.025Z,1.30
2022-09-01T20:11:44.906Z,1.08
2022-09-01T20:14:28.314Z,0.93
2022-09-01T20:17:01.755Z,1.05
2022-09-01T20:19:55.555Z,1.60
2022-09-01T20:22:33.093Z,0.98
2022-09-01T20:25:24.205Z,1.15
2022-09-01T20:28:14.408Z,0.90
2022-09-01T20:30:46.759Z,0.98
2022-09-01T20:36:33.339Z,1.27
2022-09-01T20:39:38.321Z,1.00
2022-09-01T20:42:19.887Z,1.25
2022-09-01T20:44:53.521Z,1.00
2022-09-01T20:47:22.290Z,1.10
2022-09-01T20:50:06.074Z,0.90
2022-09-01T20:53:11.855Z,1.15
2022-09-01T20:55:47.773Z,0.80
2022-09-01T20:58:37.513Z,0.93
2022-09-01T21:01:19.556Z,0.80
2022-09-01T21:04:21.475Z,0.73
2022-09-01T21:06:50.092Z,0.88
2022-09-01T21:09:31.375Z,1.20
2022-09-01T21:12:02.774Z,1.20
2022-09-01T21:14:39.095Z,1.00
2022-09-01T21:17:40.638Z,1.08
2022-09-01T21:20:31.016Z,1.00
2022-09-01T21:23:06.608Z,1.05
2022-09-01T21:25:34.158Z,0.98
2022-09-01T21:28:12.551Z,0.95
2022-09-01T21:30:45.392Z,1.40
2022-09-01T21:33:12.590Z,1.17
2022-09-01T21:35:39.798Z,0.88
2022-09-01T21:38:53.872Z,1.27
2022-09-01T21:41:20.999Z,1.30
2022-09-01T21:43:48.171Z,0.80
2022-09-01T21:46:22.852Z,0.90
2022-09-01T21:48:50.952Z,1.00
2022-09-01T21:51:18.221Z,1.25
2022-09-01T21:53:48.253Z,1.13
2022-09-01T21:56:15.306Z,1.00
2022-09-01T21:58:42.455Z,1.00
2022-09-01T22:01:23.477Z,0.82
2022-09-01T22:03:50.653Z,1.10
2022-09-01T22:06:17.906Z,1.00
2022-09-01T22:09:09.304Z,0.80
2022-09-01T22:14:19.419Z,1.20
2022-09-01T22:16:50.080Z,1.00
2022-09-01T22:19:17.498Z,0.90
2022-09-01T22:21:47.693Z,0.93
2022-09-01T22:24:19.435Z,1.13
2022-09-01T22:26:48.171Z,0.93
2022-09-01T22:32:00.554Z,0.90
2022-09-01T22:34:38.152Z,1.00
2022-09-01T22:37:08.171Z,1.00
2022-09-01T22:39:35.693Z,0.95
2022-09-01T22:42:05.042Z,1.00
2022-09-01T22:44:32.152Z,1.05
2022-09-01T22:46:59.082Z,1.00
2022-09-01T22:49:26.547Z,0.90
2022-09-01T22:51:56.768Z,1.25
2022-09-01T22:54:24.817Z,0.93
2022-09-01T22:56:56.407Z,0.88
2022-09-01T22:59:32.077Z,0.93
2022-09-01T23:02:01.564Z,1.08
2022-09-01T23:04:47.268Z,1.00
2022-09-01T23:07:14.388Z,0.80
2022-09-01T23:09:42.298Z,1.15
2022-09-01T23:12:09.378Z,0.93
2022-09-01T23:14:36.580Z,0.70
2022-09-01T23:17:03.619Z,0.88
2022-09-01T23:19:30.647Z,0.88
2022-09-01T23:21:57.740Z,0.77
2022-09-01T23:24:24.689Z,0.90
2022-09-01T23:26:51.702Z,0.70
2022-09-01T23:29:19.684Z,0.90
2022-09-01T23:31:46.716Z,0.80
2022-09-01T23:34:16.073Z,0.85
2022-09-01T23:36:45.622Z,0.90
2022-09-01T23:39:17.752Z,0.82
2022-09-01T23:41:51.974Z,0.80
2022-09-01T23:44:18.974Z,0.90
2022-09-01T23:46:47.198Z,0.85
2022-09-01T23:49:15.931Z,1.10
2022-09-01T23:51:51.887Z,0.50
2022-09-01T23:54:19.007Z,0.90
2022-09-01T23:56:46.398Z,0.80
